createdAt,value
2017-01-13T00:00:49.514Z,95.84
2017-01-13T00:01:49.510Z,96.12
2017-01-13T00:02:49.506Z,96.12
2017-01-13T00:03:49.498Z,95.93
2017-01-13T00:04:49.498Z,95.84
2017-01-13T00:05:49.494Z,95.93
2017-01-13T00:06:49.490Z,96.31
2017-01-13T00:07:49.078Z,96.03
2017-01-13T00:08:49.474Z,96.69
2017-01-13T00:09:49.486Z,96.69
2017-01-13T00:10:49.470Z,96.41
2017-01-13T00:11:49.474Z,96.59
2017-01-13T00:12:49.054Z,96.59
2017-01-13T00:13:49.050Z,96.5
2017-01-13T00:14:49.046Z,96.41
2017-01-13T00:15:49.452Z,96.41
2017-01-13T00:16:49.459Z,96.59
2017-01-13T00:17:49.451Z,96.73
2017-01-13T00:18:49.034Z,96.69
2017-01-13T00:19:49.443Z,96.41
2017-01-13T00:20:49.443Z,96.41
2017-01-13T00:21:49.435Z,96.41
2017-01-13T00:22:49.015Z,96.69
2017-01-13T00:23:49.015Z,96.69
2017-01-13T00:24:49.019Z,96.64
2017-01-13T00:25:49.007Z,96.69
2017-01-13T00:26:49.415Z,96.36
2017-01-13T00:27:49.419Z,96.36
2017-01-13T00:28:49.411Z,96.5
2017-01-13T00:29:49.411Z,96.5
2017-01-13T00:30:49.411Z,96.36
2017-01-13T00:31:48.995Z,96.55
2017-01-13T00:32:48.983Z,96.55
2017-01-13T00:33:48.987Z,96.22
2017-01-13T00:34:48.979Z,96.17
2017-01-13T00:35:49.392Z,96.08
2017-01-13T00:36:49.383Z,95.98
2017-01-13T00:37:48.979Z,95.98
2017-01-13T00:38:49.384Z,96.08
2017-01-13T00:39:49.380Z,95.98
2017-01-13T00:40:48.960Z,96.08
2017-01-13T00:41:48.956Z,96.17
2017-01-13T00:42:48.951Z,96.36
2017-01-13T00:43:48.955Z,96.26
2017-01-13T00:44:49.352Z,95.98
2017-01-13T00:45:49.359Z,96.26
2017-01-13T00:46:49.352Z,96.08
2017-01-13T00:47:49.378Z,96.08
2017-01-13T00:48:49.356Z,96.17
2017-01-13T00:49:49.340Z,96.08
2017-01-13T00:50:48.924Z,95.98
2017-01-13T00:51:48.924Z,96.08
2017-01-13T00:52:49.332Z,96.08
2017-01-13T00:53:49.324Z,95.69
2017-01-13T00:54:49.324Z,95.5
2017-01-13T00:55:49.320Z,95.5
2017-01-13T00:56:49.316Z,95.79
2017-01-13T00:57:49.320Z,95.5
2017-01-13T00:58:48.905Z,95.6
2017-01-13T00:59:48.892Z,95.5
2017-01-13T01:00:49.304Z,95.41
2017-01-13T01:01:49.304Z,95.41
2017-01-13T01:02:49.301Z,95.69
2017-01-13T01:03:49.296Z,94.46
2017-01-13T01:04:49.296Z,95.6
2017-01-13T01:05:49.292Z,95.6
2017-01-13T01:06:49.284Z,94.74
2017-01-13T01:07:49.273Z,94.65
2017-01-13T01:08:49.277Z,94.65
2017-01-13T01:09:49.276Z,95.12
2017-01-13T01:10:49.277Z,94.93
2017-01-13T01:11:49.269Z,95.12
2017-01-13T01:12:49.265Z,95.12
2017-01-13T01:13:49.265Z,94.84
2017-01-13T01:14:48.845Z,95.41
2017-01-13T01:15:48.845Z,95.5
2017-01-13T01:16:48.841Z,95.5
2017-01-13T01:17:49.257Z,94.84
2017-01-13T01:18:49.241Z,94.84
2017-01-13T01:19:49.245Z,95.69
2017-01-13T01:20:49.241Z,94.93
2017-01-13T01:21:49.237Z,94.74
2017-01-13T01:22:49.233Z,94.84
2017-01-13T01:23:48.821Z,94.93
2017-01-13T01:24:49.221Z,94.93
2017-01-13T01:25:49.225Z,94.93
2017-01-13T01:26:49.213Z,95.03
2017-01-13T01:27:49.213Z,94.93
2017-01-13T01:28:49.209Z,94.84
2017-01-13T01:29:49.209Z,94.56
2017-01-13T01:30:48.793Z,94.74
2017-01-13T01:31:48.790Z,94.27
2017-01-13T01:32:48.793Z,94.08
2017-01-13T01:33:49.194Z,93.13
2017-01-13T01:34:49.186Z,93.04
2017-01-13T01:35:49.189Z,92.57
2017-01-13T01:36:49.190Z,91.14
2017-01-13T01:37:48.774Z,90.48
2017-01-13T01:38:48.762Z,89.06
2017-01-13T01:39:49.162Z,86.68
2017-01-13T01:40:49.170Z,85.93
2017-01-13T01:41:49.170Z,83.84
2017-01-13T01:42:49.162Z,83.36
2017-01-13T01:43:49.162Z,81.85
2017-01-13T01:44:49.162Z,80.52
2017-01-13T01:45:48.742Z,79.57
2017-01-13T01:46:48.734Z,79.47
2017-01-13T01:47:49.150Z,79.19
2017-01-13T01:48:49.146Z,78.72
2017-01-13T01:49:49.142Z,78.43
2017-01-13T01:50:49.139Z,78.34
2017-01-13T01:51:49.138Z,77.77
2017-01-13T01:52:49.130Z,77.58
2017-01-13T01:53:48.718Z,77.48
2017-01-13T01:54:48.718Z,77.77
2017-01-13T01:55:49.275Z,78.34
2017-01-13T01:56:49.118Z,77.67
2017-01-13T01:57:49.111Z,77.29
2017-01-13T01:58:49.134Z,76.92
2017-01-13T01:59:48.695Z,77.2
2017-01-13T02:00:48.691Z,77.77
2017-01-13T02:01:49.099Z,77.01
2017-01-13T02:02:49.103Z,77.01
2017-01-13T02:03:49.095Z,77.11
2017-01-13T02:04:49.095Z,76.63
2017-01-13T02:05:48.675Z,76.25
2017-01-13T02:06:49.079Z,75.78
2017-01-13T02:07:49.083Z,76.54
2017-01-13T02:08:49.071Z,75.96
2017-01-13T02:09:49.079Z,76.92
2017-01-13T02:10:49.075Z,76.92
2017-01-13T02:11:49.064Z,76.34
2017-01-13T02:12:48.647Z,76.54
2017-01-13T02:13:49.064Z,77.2
2017-01-13T02:14:48.647Z,77.39
2017-01-13T02:15:49.055Z,77.29
2017-01-13T02:16:49.055Z,77.2
2017-01-13T02:17:49.051Z,76.73
2017-01-13T02:18:48.635Z,76.54
2017-01-13T02:19:49.043Z,76.15
2017-01-13T02:20:49.036Z,75.59
2017-01-13T02:21:49.036Z,75.59
2017-01-13T02:22:49.032Z,76.06
2017-01-13T02:23:49.056Z,75.96
2017-01-13T02:24:48.616Z,76.34
2017-01-13T02:25:49.019Z,76.06
2017-01-13T02:26:49.016Z,76.31
2017-01-13T02:27:49.004Z,76.31
2017-01-13T02:28:49.012Z,76.5
2017-01-13T02:29:48.588Z,76.12
2017-01-13T02:30:49.008Z,76.59
2017-01-13T02:31:48.996Z,76.68
2017-01-13T02:32:48.996Z,77.06
2017-01-13T02:33:48.992Z,76.87
2017-01-13T02:34:48.576Z,77.06
2017-01-13T02:35:48.988Z,76.87
2017-01-13T02:36:48.984Z,76.78
2017-01-13T02:37:48.984Z,76.68
2017-01-13T02:38:48.976Z,76.5
2017-01-13T02:39:48.565Z,76.31
2017-01-13T02:40:48.972Z,76.21
2017-01-13T02:41:48.968Z,75.93
2017-01-13T02:42:48.960Z,76.5
2017-01-13T02:43:48.960Z,76.68
2017-01-13T02:44:48.541Z,76.59
2017-01-13T02:45:48.540Z,76.68
2017-01-13T02:46:48.949Z,76.78
2017-01-13T02:47:48.944Z,76.97
2017-01-13T02:48:48.941Z,76.93
2017-01-13T02:49:48.932Z,77.59
2017-01-13T02:50:48.929Z,77.88
2017-01-13T02:51:48.928Z,77.4
2017-01-13T02:52:48.929Z,77.5
2017-01-13T02:53:48.513Z,77.59
2017-01-13T02:54:48.925Z,77.78
2017-01-13T02:55:49.069Z,77.22
2017-01-13T02:56:48.913Z,77.31
2017-01-13T02:57:48.497Z,77.31
2017-01-13T02:58:48.909Z,77.78
2017-01-13T02:59:48.905Z,77.59
2017-01-13T03:00:48.901Z,77.12
2017-01-13T03:01:48.489Z,77.03
2017-01-13T03:02:48.893Z,76.93
2017-01-13T03:03:48.893Z,77.12
2017-01-13T03:04:48.889Z,77.88
2017-01-13T03:05:48.469Z,77.59
2017-01-13T03:06:48.877Z,77.59
2017-01-13T03:07:48.878Z,77.59
2017-01-13T03:08:48.461Z,77.69
2017-01-13T03:09:48.865Z,77.69
2017-01-13T03:10:48.861Z,77.69
2017-01-13T03:11:48.861Z,77.5
2017-01-13T03:12:48.454Z,77.97
2017-01-13T03:13:48.878Z,77.12
2017-01-13T03:14:48.846Z,77.12
2017-01-13T03:15:48.433Z,77.59
2017-01-13T03:16:48.838Z,77.59
2017-01-13T03:17:48.838Z,77.31
2017-01-13T03:18:48.434Z,78.26
2017-01-13T03:19:48.422Z,77.97
2017-01-13T03:20:48.858Z,77.88
2017-01-13T03:21:48.822Z,78.16
2017-01-13T03:22:48.822Z,78.45
2017-01-13T03:23:48.811Z,79.02
2017-01-13T03:24:48.818Z,78.92
2017-01-13T03:25:48.806Z,79.21
2017-01-13T03:26:48.402Z,79.3
2017-01-13T03:27:48.802Z,79.77
2017-01-13T03:28:48.810Z,79.3
2017-01-13T03:29:48.390Z,79.77
2017-01-13T03:30:48.798Z,80.25
2017-01-13T03:31:48.786Z,80.44
2017-01-13T03:32:48.378Z,80.15
2017-01-13T03:33:48.774Z,80.44
2017-01-13T03:34:48.782Z,80.82
2017-01-13T03:35:48.771Z,80.53
2017-01-13T03:36:48.366Z,81.1
2017-01-13T03:37:48.771Z,81.53
2017-01-13T03:38:48.358Z,81.29
2017-01-13T03:39:48.347Z,81.29
2017-01-13T03:40:48.763Z,81.53
2017-01-13T03:41:48.755Z,81.38
2017-01-13T03:42:48.746Z,81.82
2017-01-13T03:43:48.751Z,81.57
2017-01-13T03:44:48.743Z,81.48
2017-01-13T03:45:48.331Z,81.67
2017-01-13T03:46:48.744Z,81.2
2017-01-13T03:47:48.323Z,81.38
2017-01-13T03:48:48.731Z,80.82
2017-01-13T03:49:48.723Z,81.01
2017-01-13T03:50:48.311Z,80.91
2017-01-13T03:51:48.715Z,81.2
2017-01-13T03:52:48.307Z,80.72
2017-01-13T03:53:48.707Z,80.34
2017-01-13T03:54:48.699Z,80.53
2017-01-13T03:55:48.291Z,80.06
2017-01-13T03:56:48.291Z,80.15
2017-01-13T03:57:48.695Z,80.25
2017-01-13T03:58:48.287Z,80.25
2017-01-13T03:59:48.687Z,79.87
2017-01-13T04:00:48.279Z,80.44
2017-01-13T04:01:48.683Z,80.53
2017-01-13T04:02:48.683Z,80.53
2017-01-13T04:03:48.671Z,80.15
2017-01-13T04:04:48.263Z,79.96
2017-01-13T04:05:48.256Z,79.77
2017-01-13T04:06:48.659Z,80.15
2017-01-13T04:07:48.663Z,80.25
2017-01-13T04:08:48.655Z,80.06
2017-01-13T04:09:48.663Z,80.15
2017-01-13T04:10:48.655Z,80.3
2017-01-13T04:11:48.651Z,80.53
2017-01-13T04:12:48.652Z,80.11
2017-01-13T04:13:48.228Z,80.49
2017-01-13T04:14:48.632Z,80.4
2017-01-13T04:15:48.224Z,80.3
2017-01-13T04:16:48.628Z,80.21
2017-01-13T04:17:48.628Z,80.02
2017-01-13T04:18:48.616Z,81.06
2017-01-13T04:19:48.620Z,80.4
2017-01-13T04:20:48.612Z,80.49
2017-01-13T04:21:48.608Z,80.4
2017-01-13T04:22:48.188Z,80.49
2017-01-13T04:23:48.196Z,80.96
2017-01-13T04:24:48.596Z,80.87
2017-01-13T04:25:48.588Z,80.49
2017-01-13T04:26:48.596Z,81.34
2017-01-13T04:27:48.592Z,80.96
2017-01-13T04:28:48.581Z,81.92
2017-01-13T04:29:48.164Z,80.96
2017-01-13T04:30:48.580Z,81.25
2017-01-13T04:31:48.569Z,81.44
2017-01-13T04:32:48.568Z,82.1
2017-01-13T04:33:48.564Z,82.39
2017-01-13T04:34:48.556Z,82.57
2017-01-13T04:35:48.564Z,82.29
2017-01-13T04:36:48.144Z,82.1
2017-01-13T04:37:48.561Z,81.92
2017-01-13T04:38:48.143Z,83.14
2017-01-13T04:39:48.541Z,82.29
2017-01-13T04:40:48.541Z,83.14
2017-01-13T04:41:48.533Z,82.57
2017-01-13T04:42:48.529Z,82.57
2017-01-13T04:43:48.528Z,82.39
2017-01-13T04:44:48.521Z,82.67
2017-01-13T04:45:48.521Z,82.48
2017-01-13T04:46:48.517Z,82.95
2017-01-13T04:47:48.105Z,82.82
2017-01-13T04:48:48.509Z,83.76
2017-01-13T04:49:48.097Z,83.01
2017-01-13T04:50:48.509Z,83.01
2017-01-13T04:51:48.497Z,83.1
2017-01-13T04:52:48.529Z,83.39
2017-01-13T04:53:48.493Z,83.67
2017-01-13T04:54:48.109Z,83.39
2017-01-13T04:55:48.490Z,83.48
2017-01-13T04:56:48.473Z,83.67
2017-01-13T04:57:48.481Z,83.67
2017-01-13T04:58:48.476Z,83.48
2017-01-13T04:59:48.472Z,83.67
2017-01-13T05:00:48.465Z,83.48
2017-01-13T05:01:48.464Z,83.76
2017-01-13T05:02:48.453Z,83.76
2017-01-13T05:03:48.040Z,83.67
2017-01-13T05:04:48.452Z,82.82
2017-01-13T05:05:48.452Z,83.1
2017-01-13T05:06:48.440Z,83.01
2017-01-13T05:07:48.444Z,83.2
2017-01-13T05:08:48.440Z,83.48
2017-01-13T05:09:48.431Z,83.01
2017-01-13T05:10:48.434Z,82.82
2017-01-13T05:11:48.011Z,82.63
2017-01-13T05:12:48.419Z,82.44
2017-01-13T05:13:48.004Z,81.96
2017-01-13T05:14:48.407Z,81.96
2017-01-13T05:15:47.999Z,81.59
2017-01-13T05:16:48.408Z,81.49
2017-01-13T05:17:47.992Z,81.77
2017-01-13T05:18:48.399Z,81.3
2017-01-13T05:19:48.391Z,81.12
2017-01-13T05:20:48.392Z,80.93
2017-01-13T05:21:48.375Z,80.64
2017-01-13T05:22:48.375Z,81.12
2017-01-13T05:23:48.383Z,80.07
2017-01-13T05:24:48.371Z,80.17
2017-01-13T05:25:48.375Z,79.79
2017-01-13T05:26:47.959Z,79.88
2017-01-13T05:27:48.371Z,80.07
2017-01-13T05:28:48.359Z,80.17
2017-01-13T05:29:48.363Z,79.88
2017-01-13T05:30:48.347Z,79.6
2017-01-13T05:31:48.355Z,79.79
2017-01-13T05:32:47.935Z,79.03
2017-01-13T05:33:47.931Z,79.6
2017-01-13T05:34:48.335Z,79.69
2017-01-13T05:35:47.923Z,79.88
2017-01-13T05:36:48.331Z,79.32
2017-01-13T05:37:48.323Z,79.6
2017-01-13T05:38:47.907Z,79.69
2017-01-13T05:39:48.315Z,79.88
2017-01-13T05:40:47.896Z,79.41
2017-01-13T05:41:48.307Z,79.79
2017-01-13T05:42:47.891Z,79.13
2017-01-13T05:43:48.295Z,79.03
2017-01-13T05:44:48.295Z,79.22
2017-01-13T05:45:48.295Z,79.41
2017-01-13T05:46:48.295Z,79.22
2017-01-13T05:47:47.871Z,79.13
2017-01-13T05:48:48.279Z,79.03
2017-01-13T05:49:48.279Z,79.13
2017-01-13T05:50:48.268Z,79.13
2017-01-13T05:51:48.267Z,79.13
2017-01-13T05:52:48.271Z,78.94
2017-01-13T05:53:48.263Z,78.94
2017-01-13T05:54:47.847Z,78.08
2017-01-13T05:55:48.259Z,78.46
2017-01-13T05:56:48.251Z,78.46
2017-01-13T05:57:48.248Z,78.27
2017-01-13T05:58:48.247Z,78.56
2017-01-13T05:59:47.828Z,78.46
2017-01-13T06:00:48.236Z,78.56
2017-01-13T06:01:48.236Z,78.37
2017-01-13T06:02:47.820Z,78.37
2017-01-13T06:03:48.216Z,78.27
2017-01-13T06:04:48.220Z,78.46
2017-01-13T06:05:48.212Z,79.22
2017-01-13T06:06:48.220Z,78.27
2017-01-13T06:07:47.796Z,78.27
2017-01-13T06:08:48.203Z,78.46
2017-01-13T06:09:48.196Z,78.27
2017-01-13T06:10:47.784Z,78.27
2017-01-13T06:11:48.192Z,78.37
2017-01-13T06:12:48.182Z,78.08
2017-01-13T06:13:48.180Z,77.89
2017-01-13T06:14:48.180Z,78.08
2017-01-13T06:15:47.768Z,77.42
2017-01-13T06:16:48.172Z,77.8
2017-01-13T06:17:48.164Z,77.89
2017-01-13T06:18:47.753Z,77.99
2017-01-13T06:19:48.165Z,78.08
2017-01-13T06:20:47.749Z,77.89
2017-01-13T06:21:48.152Z,78.08
2017-01-13T06:22:48.157Z,77.89
2017-01-13T06:23:47.741Z,78.08
2017-01-13T06:24:48.149Z,77.51
2017-01-13T06:25:48.136Z,77.61
2017-01-13T06:26:47.724Z,77.89
2017-01-13T06:27:48.136Z,77.39
2017-01-13T06:28:48.132Z,77.29
2017-01-13T06:29:48.125Z,77.04
2017-01-13T06:30:48.112Z,76.82
2017-01-13T06:31:48.108Z,76.34
2017-01-13T06:32:48.112Z,76.63
2017-01-13T06:33:48.112Z,76.25
2017-01-13T06:34:48.100Z,76.15
2017-01-13T06:35:48.104Z,76.06
2017-01-13T06:36:48.096Z,76.25
2017-01-13T06:37:47.680Z,75.96
2017-01-13T06:38:48.088Z,76.06
2017-01-13T06:39:48.088Z,76.15
2017-01-13T06:40:47.668Z,75.31
2017-01-13T06:41:48.079Z,75.49
2017-01-13T06:42:48.068Z,75.59
2017-01-13T06:43:48.064Z,75.4
2017-01-13T06:44:48.064Z,75.4
2017-01-13T06:45:48.060Z,75.31
2017-01-13T06:46:48.056Z,75.31
2017-01-13T06:47:48.048Z,75.49
2017-01-13T06:48:48.041Z,75.49
2017-01-13T06:49:47.637Z,75.02
2017-01-13T06:50:48.041Z,75.02
2017-01-13T06:51:48.036Z,75.12
2017-01-13T06:52:47.621Z,74.93
2017-01-13T06:53:48.029Z,75.02
2017-01-13T06:54:48.029Z,75.31
2017-01-13T06:55:47.617Z,75.59
2017-01-13T06:56:48.016Z,74.74
2017-01-13T06:57:48.013Z,75.02
2017-01-13T06:58:48.005Z,75.12
2017-01-13T06:59:47.598Z,75.31
2017-01-13T07:00:48.001Z,75.43
2017-01-13T07:01:48.001Z,74.77
2017-01-13T07:02:47.582Z,74.87
2017-01-13T07:03:47.981Z,75.05
2017-01-13T07:04:47.989Z,75.15
2017-01-13T07:05:47.574Z,74.3
2017-01-13T07:06:47.977Z,74.49
2017-01-13T07:07:47.977Z,74.77
2017-01-13T07:08:47.973Z,74.77
2017-01-13T07:09:47.969Z,74.77
2017-01-13T07:10:47.965Z,74.68
2017-01-13T07:11:47.546Z,74.68
2017-01-13T07:12:47.957Z,74.93
2017-01-13T07:13:47.949Z,74.36
2017-01-13T07:14:47.942Z,74.17
2017-01-13T07:15:47.534Z,74.93
2017-01-13T07:16:47.534Z,74.93
2017-01-13T07:17:47.939Z,74.87
2017-01-13T07:18:47.930Z,74.96
2017-01-13T07:19:47.934Z,74.77
2017-01-13T07:20:47.522Z,75.05
2017-01-13T07:21:48.222Z,74.87
2017-01-13T07:22:47.914Z,74.55
2017-01-13T07:23:47.910Z,74.64
2017-01-13T07:24:47.502Z,74.26
2017-01-13T07:25:47.910Z,74.4
2017-01-13T07:26:47.907Z,74.4
2017-01-13T07:27:47.491Z,73.92
2017-01-13T07:28:47.895Z,73.73
2017-01-13T07:29:47.891Z,73.92
2017-01-13T07:30:47.471Z,74.02
2017-01-13T07:31:47.883Z,74.49
2017-01-13T07:32:47.879Z,74.21
2017-01-13T07:33:47.463Z,74.21
2017-01-13T07:34:47.875Z,74.11
2017-01-13T07:35:47.871Z,74.4
2017-01-13T07:36:47.451Z,74.4
2017-01-13T07:37:47.863Z,74.4
2017-01-13T07:38:47.448Z,74.3
2017-01-13T07:39:47.856Z,74.49
2017-01-13T07:40:47.852Z,74.4
2017-01-13T07:41:47.848Z,74.49
2017-01-13T07:42:47.428Z,74.3
2017-01-13T07:43:47.832Z,74.21
2017-01-13T07:44:47.836Z,74.4
2017-01-13T07:45:47.416Z,74.3
2017-01-13T07:46:47.976Z,74.4
2017-01-13T07:47:47.816Z,74.21
2017-01-13T07:48:47.404Z,74.3
2017-01-13T07:49:47.809Z,74.3
2017-01-13T07:50:47.396Z,74.77
2017-01-13T07:51:47.396Z,74.4
2017-01-13T07:52:47.801Z,74.74
2017-01-13T07:53:47.801Z,74.74
2017-01-13T07:54:47.385Z,74.49
2017-01-13T07:55:47.785Z,74.36
2017-01-13T07:56:47.789Z,74.87
2017-01-13T07:57:47.365Z,74.55
2017-01-13T07:58:47.777Z,74.4
2017-01-13T07:59:47.365Z,74.68
2017-01-13T08:00:47.770Z,74.55
2017-01-13T08:01:47.762Z,74.68
2017-01-13T08:02:47.761Z,75.05
2017-01-13T08:03:47.758Z,74.83
2017-01-13T08:04:47.758Z,74.17
2017-01-13T08:05:47.342Z,74.36
2017-01-13T08:06:47.750Z,74.64
2017-01-13T08:07:47.338Z,75.05
2017-01-13T08:08:47.739Z,74.96
2017-01-13T08:09:47.734Z,75.15
2017-01-13T08:10:47.734Z,74.68
2017-01-13T08:11:47.739Z,74.49
2017-01-13T08:12:47.332Z,74.77
2017-01-13T08:13:47.719Z,75.15
2017-01-13T08:14:47.715Z,75.15
2017-01-13T08:15:47.719Z,75.05
2017-01-13T08:16:47.719Z,75.34
2017-01-13T08:17:47.703Z,75.43
2017-01-13T08:18:47.707Z,75.72
2017-01-13T08:19:47.696Z,75.43
2017-01-13T08:20:47.700Z,75.24
2017-01-13T08:21:47.844Z,75.43
2017-01-13T08:22:47.684Z,75.62
2017-01-13T08:23:47.677Z,75.53
2017-01-13T08:24:47.680Z,75.62
2017-01-13T08:25:47.264Z,75.62
2017-01-13T08:26:47.680Z,75.72
2017-01-13T08:27:47.261Z,75.53
2017-01-13T08:28:47.257Z,75.72
2017-01-13T08:29:47.668Z,76
2017-01-13T08:30:47.660Z,75.87
2017-01-13T08:31:47.396Z,75.78
2017-01-13T08:32:47.660Z,76.63
2017-01-13T08:33:47.648Z,76.15
2017-01-13T08:34:47.644Z,76.34
2017-01-13T08:35:47.641Z,76.72
2017-01-13T08:36:47.641Z,76.44
2017-01-13T08:37:47.633Z,76.34
2017-01-13T08:38:47.633Z,76.91
2017-01-13T08:39:47.625Z,76.53
2017-01-13T08:40:47.617Z,77.01
2017-01-13T08:41:47.621Z,76.91
2017-01-13T08:42:47.609Z,76.53
2017-01-13T08:43:47.606Z,77.58
2017-01-13T08:44:47.614Z,77.48
2017-01-13T08:45:47.602Z,77.29
2017-01-13T08:46:47.194Z,77.39
2017-01-13T08:47:47.598Z,77.2
2017-01-13T08:48:47.182Z,77.39
2017-01-13T08:49:47.586Z,77.39
2017-01-13T08:50:47.178Z,77.2
2017-01-13T08:51:47.582Z,77.58
2017-01-13T08:52:47.578Z,76.53
2017-01-13T08:53:47.574Z,76.82
2017-01-13T08:54:47.574Z,76.82
2017-01-13T08:55:47.593Z,76.72
2017-01-13T08:56:47.566Z,76.53
2017-01-13T08:57:47.555Z,76.34
2017-01-13T08:58:47.563Z,76.72
2017-01-13T08:59:47.143Z,75.87
2017-01-13T09:00:47.551Z,76.06
2017-01-13T09:01:47.543Z,75.4
2017-01-13T09:02:47.547Z,75.4
2017-01-13T09:03:47.539Z,75.21
2017-01-13T09:04:47.535Z,74.74
2017-01-13T09:05:47.527Z,74.36
2017-01-13T09:06:47.120Z,74.49
2017-01-13T09:07:47.519Z,73.64
2017-01-13T09:08:47.103Z,73.73
2017-01-13T09:09:47.515Z,73.54
2017-01-13T09:10:47.520Z,73.16
2017-01-13T09:11:47.503Z,72.88
2017-01-13T09:12:47.503Z,72.41
2017-01-13T09:13:47.099Z,72.03
2017-01-13T09:14:47.497Z,71.65
2017-01-13T09:15:47.499Z,71.74
2017-01-13T09:16:47.488Z,71.02
2017-01-13T09:17:47.496Z,70.55
2017-01-13T09:18:47.079Z,69.7
2017-01-13T09:19:47.076Z,69.41
2017-01-13T09:20:47.475Z,69.32
2017-01-13T09:21:47.467Z,68.56
2017-01-13T09:22:47.468Z,68.18
2017-01-13T09:23:47.464Z,68.08
2017-01-13T09:24:47.056Z,67.61
2017-01-13T09:25:47.460Z,67.24
2017-01-13T09:26:47.048Z,66.8
2017-01-13T09:27:47.058Z,67.18
2017-01-13T09:28:47.448Z,67.18
2017-01-13T09:29:47.447Z,66.89
2017-01-13T09:30:47.035Z,66.89
2017-01-13T09:31:47.032Z,66.03
2017-01-13T09:32:47.432Z,66.03
2017-01-13T09:33:47.020Z,65.75
2017-01-13T09:34:47.024Z,65.66
2017-01-13T09:35:47.420Z,65.28
2017-01-13T09:36:47.012Z,65.37
2017-01-13T09:37:47.416Z,65.09
2017-01-13T09:38:47.412Z,65
2017-01-13T09:39:46.996Z,64.96
2017-01-13T09:40:47.397Z,64.49
2017-01-13T09:41:47.408Z,64.39
2017-01-13T09:42:47.393Z,64.3
2017-01-13T09:43:47.402Z,64.58
2017-01-13T09:44:47.389Z,64.39
2017-01-13T09:45:47.393Z,64.96
2017-01-13T09:46:47.393Z,64.96
2017-01-13T09:47:46.972Z,64.96
2017-01-13T09:48:47.373Z,64.49
2017-01-13T09:49:47.365Z,64.49
2017-01-13T09:50:47.365Z,64.49
2017-01-13T09:51:46.957Z,64.49
2017-01-13T09:52:47.369Z,65.06
2017-01-13T09:53:47.361Z,64.96
2017-01-13T09:54:47.357Z,65.25
2017-01-13T09:55:47.353Z,65.34
2017-01-13T09:56:47.349Z,65.63
2017-01-13T09:57:46.937Z,65.63
2017-01-13T09:58:47.337Z,66
2017-01-13T09:59:47.338Z,66.57
2017-01-13T10:00:47.337Z,66.76
2017-01-13T10:01:47.333Z,66.95
2017-01-13T10:02:47.333Z,66.86
2017-01-13T10:03:47.330Z,67.14
2017-01-13T10:04:47.322Z,67.8
2017-01-13T10:05:47.318Z,67.71
2017-01-13T10:06:47.318Z,67.52
2017-01-13T10:07:47.310Z,68.02
2017-01-13T10:08:47.309Z,68.4
2017-01-13T10:09:47.302Z,68.12
2017-01-13T10:10:46.882Z,68.21
2017-01-13T10:11:47.302Z,68.02
2017-01-13T10:12:47.298Z,68.59
2017-01-13T10:13:47.294Z,68.79
2017-01-13T10:14:47.282Z,68.69
2017-01-13T10:15:46.866Z,68.69
2017-01-13T10:16:47.273Z,68.12
2017-01-13T10:17:47.273Z,68.88
2017-01-13T10:18:47.277Z,68.59
2017-01-13T10:19:47.265Z,68.59
2017-01-13T10:20:46.857Z,68.5
2017-01-13T10:21:47.265Z,68.69
2017-01-13T10:22:46.848Z,68.5
2017-01-13T10:23:46.840Z,68.35
2017-01-13T10:24:46.836Z,67.96
2017-01-13T10:25:46.836Z,68.06
2017-01-13T10:26:46.838Z,68.25
2017-01-13T10:27:46.828Z,68.25
2017-01-13T10:28:46.828Z,67.77
2017-01-13T10:29:46.820Z,67.68
2017-01-13T10:30:47.227Z,67.49
2017-01-13T10:31:47.228Z,67.3
2017-01-13T10:32:47.224Z,67.3
2017-01-13T10:33:47.224Z,66.93
2017-01-13T10:34:46.804Z,66.83
2017-01-13T10:35:47.212Z,67.3
2017-01-13T10:36:46.803Z,67.36
2017-01-13T10:37:47.208Z,66.89
2017-01-13T10:38:46.796Z,66.89
2017-01-13T10:39:47.196Z,67.46
2017-01-13T10:40:47.200Z,67.55
2017-01-13T10:41:47.188Z,67.46
2017-01-13T10:42:46.781Z,66.99
2017-01-13T10:43:46.776Z,66.7
2017-01-13T10:44:46.776Z,66.8
2017-01-13T10:45:47.188Z,66.51
2017-01-13T10:46:47.180Z,66.32
2017-01-13T10:47:47.180Z,66.22
2017-01-13T10:48:47.173Z,66.03
2017-01-13T10:49:47.172Z,65.84
2017-01-13T10:50:47.160Z,65.75
2017-01-13T10:51:47.168Z,65.84
2017-01-13T10:52:47.160Z,65.09
2017-01-13T10:53:47.160Z,65.09
2017-01-13T10:54:46.752Z,64.33
2017-01-13T10:55:47.152Z,64.23
2017-01-13T10:56:47.148Z,64.23
2017-01-13T10:57:47.140Z,63.39
2017-01-13T10:58:47.144Z,62.91
2017-01-13T10:59:47.140Z,62.53
2017-01-13T11:00:47.136Z,62.62
2017-01-13T11:01:47.132Z,62.34
2017-01-13T11:02:47.128Z,61.96
2017-01-13T11:03:46.716Z,61.68
2017-01-13T11:04:47.125Z,61.4
2017-01-13T11:05:47.124Z,61.11
2017-01-13T11:06:47.112Z,61.21
2017-01-13T11:07:46.705Z,61.3
2017-01-13T11:08:47.116Z,61.3
2017-01-13T11:09:46.692Z,60.67
2017-01-13T11:10:47.100Z,60.95
2017-01-13T11:11:47.101Z,60.19
2017-01-13T11:12:47.097Z,60.19
2017-01-13T11:13:46.689Z,58.96
2017-01-13T11:14:47.089Z,58.48
2017-01-13T11:15:47.094Z,58.2
2017-01-13T11:16:47.097Z,57.54
2017-01-13T11:17:46.676Z,56.87
2017-01-13T11:18:47.085Z,56.87
2017-01-13T11:19:47.081Z,56.78
2017-01-13T11:20:47.081Z,56.97
2017-01-13T11:21:46.661Z,56.68
2017-01-13T11:22:47.073Z,57.06
2017-01-13T11:23:47.065Z,56.87
2017-01-13T11:24:47.066Z,56.3
2017-01-13T11:25:46.655Z,55.93
2017-01-13T11:26:47.061Z,55.83
2017-01-13T11:27:47.058Z,55.93
2017-01-13T11:28:46.642Z,55.55
2017-01-13T11:29:47.049Z,54.6
2017-01-13T11:30:47.050Z,54.32
2017-01-13T11:31:47.041Z,54.32
2017-01-13T11:32:47.046Z,54.5
2017-01-13T11:33:47.042Z,54.5
2017-01-13T11:34:47.029Z,54.5
2017-01-13T11:35:46.626Z,54.69
2017-01-13T11:36:46.625Z,54.22
2017-01-13T11:37:47.026Z,53.94
2017-01-13T11:38:47.022Z,53.94
2017-01-13T11:39:47.026Z,53.84
2017-01-13T11:40:47.018Z,53.94
2017-01-13T11:41:47.018Z,54.03
2017-01-13T11:42:47.002Z,54.13
2017-01-13T11:43:46.602Z,54.03
2017-01-13T11:44:47.006Z,54.22
2017-01-13T11:45:46.594Z,54.03
2017-01-13T11:46:46.586Z,54.03
2017-01-13T11:47:46.590Z,53.94
2017-01-13T11:48:46.998Z,53.46
2017-01-13T11:49:46.991Z,53.39
2017-01-13T11:50:46.983Z,53.02
2017-01-13T11:51:46.986Z,51.87
2017-01-13T11:52:46.574Z,51.31
2017-01-13T11:53:46.566Z,50.74
2017-01-13T11:54:46.563Z,51.21
2017-01-13T11:55:46.975Z,50.93
2017-01-13T11:56:46.567Z,50.26
2017-01-13T11:57:46.551Z,50.45
2017-01-13T11:58:46.563Z,49.98
2017-01-13T11:59:46.966Z,50.26
2017-01-13T12:00:46.955Z,49.79
2017-01-13T12:01:47.007Z,50.45
2017-01-13T12:02:46.543Z,50.17
2017-01-13T12:03:46.947Z,49.95
2017-01-13T12:04:46.951Z,50.15
2017-01-13T12:05:46.943Z,50.05
2017-01-13T12:06:46.527Z,49.95
2017-01-13T12:07:46.943Z,50.34
2017-01-13T12:08:46.935Z,50.05
2017-01-13T12:09:46.519Z,49.86
2017-01-13T12:10:46.935Z,49.86
2017-01-13T12:11:46.928Z,50.34
2017-01-13T12:12:46.511Z,50.24
2017-01-13T12:13:46.920Z,50.81
2017-01-13T12:14:46.915Z,50.9
2017-01-13T12:15:46.508Z,50.97
2017-01-13T12:16:46.908Z,51.64
2017-01-13T12:17:46.504Z,51.45
2017-01-13T12:18:46.912Z,51.35
2017-01-13T12:19:46.903Z,51.45
2017-01-13T12:20:46.904Z,51.16
2017-01-13T12:21:46.902Z,51.35
2017-01-13T12:22:46.484Z,51.73
2017-01-13T12:23:46.892Z,52.08
2017-01-13T12:24:46.892Z,52.08
2017-01-13T12:25:46.888Z,52.75
2017-01-13T12:26:46.895Z,52.56
2017-01-13T12:27:46.885Z,52.94
2017-01-13T12:28:46.880Z,53.03
2017-01-13T12:29:46.872Z,53.34
2017-01-13T12:30:46.873Z,53.44
2017-01-13T12:31:46.465Z,53.44
2017-01-13T12:32:46.868Z,53.44
2017-01-13T12:33:46.853Z,53.53
2017-01-13T12:34:46.889Z,53.15
2017-01-13T12:35:46.449Z,53.46
2017-01-13T12:36:46.853Z,52.7
2017-01-13T12:37:46.441Z,53.18
2017-01-13T12:38:46.849Z,53.46
2017-01-13T12:39:46.846Z,53.84
2017-01-13T12:40:46.841Z,53.75
2017-01-13T12:41:46.837Z,54.03
2017-01-13T12:42:46.837Z,54.22
2017-01-13T12:43:46.425Z,54.63
2017-01-13T12:44:46.837Z,53.96
2017-01-13T12:45:46.830Z,53.77
2017-01-13T12:46:46.826Z,53.58
2017-01-13T12:47:46.821Z,53.3
2017-01-13T12:48:46.406Z,52.92
2017-01-13T12:49:46.822Z,52.54
2017-01-13T12:50:46.406Z,51.24
2017-01-13T12:51:46.810Z,51.33
2017-01-13T12:52:46.813Z,51.24
2017-01-13T12:53:46.798Z,51.05
2017-01-13T12:54:46.806Z,50.76
2017-01-13T12:55:46.806Z,51.72